Time;durP1;ratioP1;P1;durP2;ratioP2;P2;SDS_P1;SDS_P2;PMS_P1;PMS_P2;Temp;Humidity;BMP_temperature;BMP_pressure;BME280_temperature;BME280_humidity;BME280_pressure;Samples;Min_cycle;Max_cycle;Signal;HPM_P1;HPM_P2
2021/05/22 00:00:55;;;;;;;2.83;1.92;;;9.70;99.90;;;;;;4993604;28;20026;-75
2021/05/22 00:03:21;;;;;;;3.67;2.13;;;9.60;99.90;;;;;;4993590;28;20033;-75
2021/05/22 00:05:47;;;;;;;4.38;2.85;;;9.60;99.90;;;;;;5011003;28;20028;-75
2021/05/22 00:08:12;;;;;;;4.47;1.98;;;9.60;99.90;;;;;;5010995;28;20434;-76
2021/05/22 00:10:38;;;;;;;5.40;2.63;;;9.50;99.90;;;;;;4993435;28;20072;-75
2021/05/22 00:13:04;;;;;;;2.85;2.03;;;9.50;99.90;;;;;;5011132;28;20072;-75
2021/05/22 00:15:30;;;;;;;6.93;5.70;;;9.50;99.90;;;;;;5010754;28;20088;-75
2021/05/22 00:17:55;;;;;;;5.18;3.03;;;9.40;99.90;;;;;;4993278;28;20049;-75
2021/05/22 00:20:21;;;;;;;2.47;1.77;;;9.40;99.90;;;;;;4993612;28;20021;-75
2021/05/22 00:22:47;;;;;;;3.22;1.48;;;9.30;99.90;;;;;;5010824;28;20030;-75
2021/05/22 00:25:14;;;;;;;2.78;1.40;;;9.30;99.90;;;;;;4993040;28;20066;-76
2021/05/22 00:27:40;;;;;;;1.90;1.38;;;9.20;99.90;;;;;;4993098;28;20167;-76
2021/05/22 00:30:07;;;;;;;1.73;1.13;;;9.20;99.90;;;;;;5010726;28;20111;-76
2021/05/22 00:32:33;;;;;;;3.08;1.33;;;9.20;99.90;;;;;;5010546;28;20115;-76
2021/05/22 00:34:59;;;;;;;1.70;1.13;;;9.20;99.90;;;;;;5010576;28;20073;-76
2021/05/22 00:37:24;;;;;;;1.30;0.98;;;9.20;99.90;;;;;;4993046;28;20026;-76
2021/05/22 00:39:50;;;;;;;1.35;0.82;;;9.20;99.90;;;;;;5010523;28;20118;-76
2021/05/22 00:42:16;;;;;;;1.70;1.00;;;9.10;99.90;;;;;;5010527;28;20022;-76
2021/05/22 00:45:05;;;;;;;1.10;0.90;;;9.10;99.90;;;;;;5010298;28;20028;-75
2021/05/22 00:47:30;;;;;;;1.00;0.90;;;9.10;99.90;;;;;;4992774;28;20057;-76
2021/05/22 00:49:56;;;;;;;1.35;1.10;;;9.00;99.90;;;;;;5010395;28;20423;-76
2021/05/22 00:52:23;;;;;;;0.98;0.90;;;9.00;99.90;;;;;;5010297;28;20100;-75
2021/05/22 00:54:48;;;;;;;1.88;1.00;;;9.00;99.90;;;;;;4992599;28;20080;-75
2021/05/22 00:57:16;;;;;;;1.20;1.08;;;8.90;99.90;;;;;;5010369;28;20041;-75
2021/05/22 00:59:43;;;;;;;2.58;1.10;;;8.90;99.90;;;;;;5009273;28;20049;-75
2021/05/22 01:02:10;;;;;;;1.63;1.20;;;8.90;99.90;;;;;;4992621;28;20029;-75
2021/05/22 01:04:36;;;;;;;7.95;1.27;;;8.80;99.90;;;;;;5010094;28;20030;-75
2021/05/22 01:07:02;;;;;;;1.52;1.00;;;8.80;99.90;;;;;;4992749;28;20076;-75
2021/05/22 01:09:27;;;;;;;4.40;1.63;;;8.80;99.90;;;;;;4992516;28;20072;-75
2021/05/22 01:12:03;;;;;;;1.13;0.90;;;8.80;99.90;;;;;;5009979;28;20545;-75
2021/05/22 01:14:59;;;;;;;2.38;1.10;;;8.80;99.90;;;;;;5009805;28;20069;-76
2021/05/22 01:17:26;;;;;;;1.20;0.85;;;8.80;99.90;;;;;;5003380;28;20038;-76
2021/05/22 01:20:08;;;;;;;1.00;0.90;;;8.80;99.90;;;;;;4992253;28;20018;-76
2021/05/22 01:22:42;;;;;;;2.40;0.80;;;8.70;99.90;;;;;;4992262;28;20029;-77
2021/05/22 01:25:20;;;;;;;2.00;0.82;;;8.70;99.90;;;;;;5009689;28;20022;-77
2021/05/22 01:27:46;;;;;;;2.88;0.70;;;8.60;99.90;;;;;;5009896;28;20076;-76
2021/05/22 01:30:13;;;;;;;0.77;0.63;;;8.60;99.90;;;;;;4992096;28;20038;-75
2021/05/22 01:32:39;;;;;;;1.77;0.80;;;8.60;99.90;;;;;;5009944;28;20022;-76
2021/05/22 01:35:05;;;;;;;4.03;1.08;;;8.50;99.90;;;;;;5009564;28;20487;-75
2021/05/22 01:37:31;;;;;;;2.25;0.85;;;8.50;99.90;;;;;;5009534;28;20026;-75
2021/05/22 01:39:56;;;;;;;2.63;0.70;;;8.50;99.90;;;;;;4992031;28;20028;-75
2021/05/22 01:42:22;;;;;;;1.08;0.80;;;8.50;99.90;;;;;;4992024;28;20067;-76
2021/05/22 01:44:51;;;;;;;1.95;1.20;;;8.50;99.90;;;;;;4991931;28;20491;-76
2021/05/22 01:47:19;;;;;;;2.33;0.80;;;8.50;99.90;;;;;;5009759;28;20028;-76
2021/05/22 01:49:45;;;;;;;1.42;0.80;;;8.50;99.90;;;;;;5009474;28;20112;-75
2021/05/22 01:52:12;;;;;;;2.13;0.88;;;8.40;99.90;;;;;;5009508;28;20450;-77
2021/05/22 01:54:39;;;;;;;3.85;0.77;;;8.40;99.90;;;;;;4991844;28;20029;-76
2021/05/22 01:57:05;;;;;;;2.35;0.80;;;8.40;99.90;;;;;;4991793;28;20028;-76
2021/05/22 01:59:34;;;;;;;2.08;0.77;;;8.40;99.90;;;;;;5009464;28;20028;-76
2021/05/22 02:02:00;;;;;;;1.42;0.80;;;8.40;99.90;;;;;;5009402;28;20022;-76
2021/05/22 02:04:28;;;;;;;2.13;0.60;;;8.40;99.90;;;;;;4991881;28;20499;-76
2021/05/22 02:06:55;;;;;;;0.75;0.70;;;8.40;99.90;;;;;;4991901;28;20060;-76
2021/05/22 02:09:21;;;;;;;1.20;0.77;;;8.30;99.90;;;;;;5010010;28;20026;-76
2021/05/22 02:11:50;;;;;;;1.77;0.90;;;8.30;99.90;;;;;;5011998;28;20025;-76
2021/05/22 02:14:24;;;;;;;0.90;0.57;;;8.30;99.90;;;;;;5013082;28;20045;-76
2021/05/22 02:16:52;;;;;;;0.85;0.60;;;8.20;99.90;;;;;;4995580;28;20025;-76
2021/05/22 02:19:21;;;;;;;1.30;1.20;;;8.20;99.90;;;;;;4995597;28;20030;-75
2021/05/22 02:21:47;;;;;;;1.98;0.55;;;8.20;99.90;;;;;;5013137;28;20026;-75
2021/05/22 02:24:16;;;;;;;0.50;0.50;;;8.20;99.90;;;;;;5013064;28;20022;-75
2021/05/22 02:26:42;;;;;;;1.27;0.65;;;8.10;99.90;;;;;;5013355;28;20029;-75
2021/05/22 02:29:17;;;;;;;1.20;0.90;;;8.10;99.90;;;;;;4995410;28;20068;-75
2021/05/22 02:31:45;;;;;;;0.88;0.65;;;8.10;99.90;;;;;;4996023;28;20029;-75
2021/05/22 02:34:12;;;;;;;1.58;0.70;;;8.00;99.90;;;;;;5013109;28;20046;-75
2021/05/22 02:36:40;;;;;;;0.52;0.52;;;8.00;99.90;;;;;;5012790;28;20030;-75
2021/05/22 02:39:07;;;;;;;0.95;0.73;;;8.00;99.90;;;;;;4995242;28;20037;-75
2021/05/22 02:41:35;;;;;;;1.55;0.88;;;8.00;99.90;;;;;;4995185;28;20030;-75
2021/05/22 02:44:02;;;;;;;2.17;0.80;;;8.00;99.90;;;;;;5012646;28;20095;-75
2021/05/22 02:46:32;;;;;;;0.63;0.60;;;8.00;99.90;;;;;;5012604;28;20033;-75
2021/05/22 02:48:58;;;;;;;0.77;0.60;;;7.90;99.90;;;;;;5012581;28;20487;-75
2021/05/22 02:51:25;;;;;;;0.65;0.65;;;7.90;99.90;;;;;;5012500;28;20092;-75
2021/05/22 02:53:52;;;;;;;0.82;0.60;;;7.90;99.90;;;;;;5012427;28;20395;-75
2021/05/22 02:56:19;;;;;;;1.10;0.80;;;7.90;99.90;;;;;;5012367;28;20084;-74
2021/05/22 02:58:46;;;;;;;0.98;0.57;;;7.90;99.90;;;;;;5012417;28;20101;-75
2021/05/22 03:01:12;;;;;;;0.47;0.40;;;7.90;99.90;;;;;;5012336;28;20045;-75
2021/05/22 03:03:39;;;;;;;1.23;0.73;;;7.90;99.90;;;;;;4995645;28;20471;-74
2021/05/22 03:06:05;;;;;;;0.82;0.60;;;7.90;99.90;;;;;;5012207;28;20018;-75
2021/05/22 03:08:42;;;;;;;1.50;0.60;;;7.90;99.90;;;;;;5012535;28;20502;-75
2021/05/22 03:11:09;;;;;;;0.63;0.60;;;7.90;99.90;;;;;;5012448;28;20049;-75
2021/05/22 03:13:35;;;;;;;1.58;0.70;;;7.90;99.90;;;;;;5012686;28;20527;-75
2021/05/22 03:16:00;;;;;;;0.82;0.60;;;7.80;99.90;;;;;;5011947;28;20140;-75
2021/05/22 03:18:26;;;;;;;0.60;0.60;;;7.90;99.90;;;;;;4994409;28;20030;-75
2021/05/22 03:20:53;;;;;;;1.58;0.60;;;7.90;99.90;;;;;;4994436;28;20026;-74
2021/05/22 03:23:18;;;;;;;0.70;0.50;;;7.90;99.90;;;;;;5011182;28;20030;-74
2021/05/22 03:25:44;;;;;;;1.25;0.68;;;7.80;99.90;;;;;;5012089;28;20100;-75
2021/05/22 03:28:09;;;;;;;1.52;0.63;;;7.80;99.90;;;;;;5011918;28;20030;-75
2021/05/22 03:30:36;;;;;;;2.13;0.73;;;7.80;99.90;;;;;;4994242;28;20041;-74
2021/05/22 03:33:02;;;;;;;0.57;0.57;;;7.80;99.90;;;;;;5011794;28;20080;-75
2021/05/22 03:35:27;;;;;;;0.50;0.50;;;7.80;99.90;;;;;;5011683;28;20030;-75
2021/05/22 03:37:53;;;;;;;0.60;0.50;;;7.80;99.90;;;;;;4994051;28;20030;-75
2021/05/22 03:40:18;;;;;;;0.60;0.50;;;7.80;99.90;;;;;;5012163;28;20029;-75
2021/05/22 03:42:44;;;;;;;0.63;0.60;;;7.80;99.90;;;;;;5011735;28;20027;-75
2021/05/22 03:45:10;;;;;;;0.73;0.52;;;7.80;99.90;;;;;;4993975;28;20028;-75
2021/05/22 03:47:36;;;;;;;0.70;0.50;;;7.80;99.90;;;;;;5011793;28;20100;-75
2021/05/22 03:50:02;;;;;;;0.52;0.50;;;7.80;99.90;;;;;;5011510;28;20060;-75
2021/05/22 03:52:28;;;;;;;0.77;0.60;;;7.70;99.90;;;;;;5011464;28;20042;-74
2021/05/22 03:54:53;;;;;;;0.47;0.47;;;7.70;99.90;;;;;;5011323;28;20056;-75
2021/05/22 03:57:19;;;;;;;0.65;0.60;;;7.80;99.90;;;;;;5011215;28;20084;-74
2021/05/22 03:59:44;;;;;;;0.55;0.50;;;7.80;99.90;;;;;;5011263;28;20052;-74
2021/05/22 04:02:10;;;;;;;0.70;0.70;;;7.80;99.90;;;;;;4993752;28;20563;-74
2021/05/22 04:04:35;;;;;;;1.35;0.70;;;7.80;99.90;;;;;;5011134;28;20026;-74
2021/05/22 04:07:01;;;;;;;1.23;0.50;;;7.80;99.90;;;;;;5011189;28;20026;-74
2021/05/22 04:09:26;;;;;;;1.35;0.70;;;7.80;99.90;;;;;;4993536;28;20057;-75
2021/05/22 04:11:52;;;;;;;0.65;0.60;;;7.80;99.90;;;;;;4993583;28;20126;-75
2021/05/22 04:14:17;;;;;;;1.02;0.80;;;7.80;99.90;;;;;;5037607;22;20109;-74
2021/05/22 04:16:43;;;;;;;0.85;0.60;;;7.90;99.90;;;;;;5030079;28;20045;-74
2021/05/22 04:19:08;;;;;;;0.80;0.60;;;7.90;99.90;;;;;;5030747;28;20032;-74
2021/05/22 04:21:34;;;;;;;0.55;0.45;;;7.90;99.90;;;;;;5030651;28;20382;-74
2021/05/22 04:24:00;;;;;;;0.55;0.50;;;7.90;99.90;;;;;;5030894;28;20100;-74
2021/05/22 04:26:25;;;;;;;1.65;0.60;;;7.90;99.90;;;;;;5012813;28;20516;-74
2021/05/22 04:28:51;;;;;;;1.70;0.70;;;7.90;99.90;;;;;;5012880;28;20075;-75
2021/05/22 04:31:16;;;;;;;1.50;0.60;;;7.90;99.90;;;;;;5012825;28;20020;-74
2021/05/22 04:33:42;;;;;;;0.88;0.63;;;8.00;99.90;;;;;;5030264;28;20533;-74
2021/05/22 04:36:08;;;;;;;2.03;0.70;;;8.00;99.90;;;;;;5030350;28;20025;-74
2021/05/22 04:38:34;;;;;;;1.00;0.50;;;8.00;99.90;;;;;;5012594;28;20483;-74
2021/05/22 04:40:59;;;;;;;0.43;0.43;;;8.00;99.90;;;;;;5030330;28;20017;-74
2021/05/22 04:43:25;;;;;;;0.50;0.50;;;8.10;99.90;;;;;;5013074;28;20394;-74
2021/05/22 04:45:51;;;;;;;1.08;0.52;;;8.10;99.90;;;;;;5012691;28;20479;-74
2021/05/22 04:48:17;;;;;;;0.50;0.50;;;8.20;99.90;;;;;;5030424;28;20034;-74
2021/05/22 04:50:43;;;;;;;0.40;0.40;;;8.20;99.90;;;;;;5012691;28;20021;-74
2021/05/22 04:53:08;;;;;;;3.30;0.60;;;8.20;99.90;;;;;;5030547;28;20032;-75
2021/05/22 04:55:34;;;;;;;1.60;0.50;;;8.30;99.90;;;;;;5012814;28;20399;-74
2021/05/22 04:57:59;;;;;;;0.77;0.45;;;8.30;99.90;;;;;;5030695;28;20032;-74
2021/05/22 05:00:25;;;;;;;2.25;0.73;;;8.30;99.90;;;;;;5030990;28;20026;-74
2021/05/22 05:02:51;;;;;;;0.60;0.60;;;8.30;99.90;;;;;;5030111;28;20463;-74
2021/05/22 05:05:17;;;;;;;0.68;0.50;;;8.30;99.90;;;;;;5030026;28;20033;-75
2021/05/22 05:07:43;;;;;;;1.08;0.70;;;8.40;99.90;;;;;;5029810;28;20025;-74
2021/05/22 05:10:10;;;;;;;1.05;0.80;;;8.40;99.90;;;;;;5029838;28;20513;-74
2021/05/22 05:12:36;;;;;;;1.10;0.70;;;8.50;99.90;;;;;;5012250;28;20026;-74
2021/05/22 05:15:05;;;;;;;0.60;0.60;;;8.50;99.90;;;;;;5030940;28;20041;-74
2021/05/22 05:17:31;;;;;;;0.50;0.50;;;8.60;99.90;;;;;;5029751;28;20108;-75
2021/05/22 05:20:00;;;;;;;0.52;0.47;;;8.60;99.90;;;;;;5029809;28;20018;-75
2021/05/22 05:22:27;;;;;;;0.63;0.60;;;8.60;99.90;;;;;;5011996;28;20023;-74
2021/05/22 05:24:53;;;;;;;0.80;0.70;;;8.70;99.90;;;;;;5029554;28;20025;-74
2021/05/22 05:27:19;;;;;;;1.23;0.70;;;8.70;99.90;;;;;;5011865;28;20449;-74
2021/05/22 05:29:44;;;;;;;0.73;0.55;;;8.70;99.90;;;;;;5011879;28;20076;-74
2021/05/22 05:32:10;;;;;;;0.80;0.50;;;8.70;99.90;;;;;;5011850;28;20558;-74
2021/05/22 05:34:37;;;;;;;0.60;0.60;;;8.70;99.90;;;;;;5029489;28;20025;-74
2021/05/22 05:37:03;;;;;;;0.50;0.50;;;8.70;99.90;;;;;;5029362;28;20028;-74
2021/05/22 05:39:28;;;;;;;0.73;0.40;;;8.70;99.90;;;;;;5029470;28;20026;-75
2021/05/22 05:41:54;;;;;;;0.65;0.65;;;8.70;99.90;;;;;;5011807;28;20025;-75
2021/05/22 05:44:20;;;;;;;2.60;0.60;;;8.70;99.90;;;;;;5029333;28;20025;-75
2021/05/22 05:46:45;;;;;;;1.35;0.90;;;8.80;99.90;;;;;;5035120;28;20418;-74
2021/05/22 05:49:11;;;;;;;0.73;0.70;;;8.90;99.90;;;;;;5035953;28;20398;-75
2021/05/22 05:51:36;;;;;;;0.50;0.50;;;9.00;99.90;;;;;;5035882;28;20498;-75
2021/05/22 05:54:02;;;;;;;0.98;0.73;;;9.00;99.90;;;;;;5035915;28;20043;-75
2021/05/22 05:56:28;;;;;;;1.50;0.82;;;9.10;99.90;;;;;;5017984;28;20028;-74
2021/05/22 05:58:53;;;;;;;1.98;0.60;;;9.30;99.90;;;;;;5018221;28;20021;-75
2021/05/22 06:01:19;;;;;;;1.48;0.60;;;9.40;99.90;;;;;;5035829;28;20443;-74
2021/05/22 06:03:44;;;;;;;1.58;0.52;;;9.50;99.90;;;;;;5036362;28;20104;-75
2021/05/22 06:06:10;;;;;;;0.60;0.55;;;9.60;99.90;;;;;;5017910;28;20470;-75
2021/05/22 06:08:36;;;;;;;0.50;0.50;;;9.70;99.90;;;;;;5036110;28;20045;-75
2021/05/22 06:11:03;;;;;;;1.77;0.73;;;9.80;99.90;;;;;;5035809;28;20108;-75
2021/05/22 06:13:32;;;;;;;0.75;0.50;;;9.80;99.90;;;;;;5035718;28;20036;-74
2021/05/22 06:16:58;;;;;;;1.13;0.60;;;9.80;99.90;;;;;;5017774;28;20033;-75
2021/05/22 06:18:53;;;;;;;0.60;0.40;;;9.90;99.90;;;;;;5022702;28;20105;-75
2021/05/22 06:21:19;;;;;;;0.70;0.70;;;10.00;99.90;;;;;;5035698;28;20021;-75
2021/05/22 06:23:44;;;;;;;0.50;0.50;;;10.10;99.90;;;;;;5035613;28;20444;-75
2021/05/22 06:26:10;;;;;;;0.95;0.50;;;10.30;99.90;;;;;;5035488;28;20029;-75
2021/05/22 06:28:36;;;;;;;0.80;0.40;;;10.70;99.90;;;;;;5035570;28;20029;-75
2021/05/22 06:31:02;;;;;;;1.23;0.40;;;10.90;99.90;;;;;;5035563;28;20029;-75
2021/05/22 06:33:28;;;;;;;1.02;0.50;;;11.10;99.90;;;;;;5035529;28;20471;-74
2021/05/22 06:35:54;;;;;;;0.75;0.60;;;11.10;99.90;;;;;;5035440;28;20408;-75
2021/05/22 06:38:20;;;;;;;1.02;0.50;;;11.10;99.90;;;;;;5035375;28;20030;-76
2021/05/22 06:40:45;;;;;;;0.93;0.60;;;11.10;99.90;;;;;;5035480;28;20421;-75
2021/05/22 06:43:11;;;;;;;0.90;0.50;;;11.10;99.90;;;;;;5017675;28;20017;-75
2021/05/22 06:45:39;;;;;;;1.63;0.68;;;11.20;99.90;;;;;;5017631;28;20075;-75
2021/05/22 06:48:09;;;;;;;0.95;0.50;;;11.30;99.90;;;;;;5035413;28;20025;-75
2021/05/22 06:50:36;;;;;;;0.85;0.60;;;11.30;99.90;;;;;;5017572;28;20474;-74
2021/05/22 06:53:03;;;;;;;0.40;0.40;;;11.40;99.90;;;;;;5035328;28;20040;-75
2021/05/22 06:55:28;;;;;;;3.53;0.70;;;11.60;99.90;;;;;;5035501;28;20037;-75
2021/05/22 06:57:54;;;;;;;0.65;0.50;;;11.60;99.90;;;;;;5033173;28;20083;-75
2021/05/22 07:00:21;;;;;;;1.10;0.50;;;11.50;99.90;;;;;;5032168;28;20017;-74
2021/05/22 07:02:46;;;;;;;0.95;0.60;;;11.60;99.90;;;;;;5014424;28;20021;-75
2021/05/22 07:05:12;;;;;;;0.85;0.60;;;11.80;99.90;;;;;;5032046;28;20028;-75
2021/05/22 07:07:39;;;;;;;0.82;0.50;;;11.90;99.90;;;;;;5032008;28;20029;-75
2021/05/22 07:10:06;;;;;;;0.43;0.43;;;11.90;99.90;;;;;;5032283;28;20080;-75
2021/05/22 07:12:32;;;;;;;2.35;0.93;;;12.00;99.90;;;;;;5031900;28;20548;-75
2021/05/22 07:14:57;;;;;;;2.55;0.90;;;12.30;99.90;;;;;;5013981;28;20041;-75
2021/05/22 07:17:23;;;;;;;1.98;0.60;;;12.50;99.90;;;;;;5031684;28;20085;-75
2021/05/22 07:19:48;;;;;;;1.65;0.63;;;12.60;99.90;;;;;;5031571;28;20018;-75
2021/05/22 07:22:14;;;;;;;1.50;0.65;;;12.60;99.90;;;;;;5013928;28;20071;-75
2021/05/22 07:24:40;;;;;;;0.90;0.60;;;12.70;99.90;;;;;;5031532;28;20075;-75
2021/05/22 07:27:06;;;;;;;0.77;0.70;;;12.90;99.90;;;;;;5014001;28;20549;-75
2021/05/22 07:29:32;;;;;;;0.98;0.82;;;13.10;99.90;;;;;;5031694;28;20029;-74
2021/05/22 07:31:57;;;;;;;2.05;0.63;;;13.00;99.90;;;;;;5013877;28;20025;-74
2021/05/22 07:34:23;;;;;;;0.65;0.57;;;13.20;99.90;;;;;;5031755;28;20064;-75
2021/05/22 07:36:48;;;;;;;1.15;0.68;;;13.30;99.90;;;;;;5031732;28;20029;-74
2021/05/22 07:39:15;;;;;;;2.22;0.82;;;13.40;99.90;;;;;;5031905;28;20379;-75
2021/05/22 07:41:42;;;;;;;2.97;0.70;;;13.50;99.90;;;;;;5031368;28;20013;-74
2021/05/22 07:44:08;;;;;;;1.35;0.65;;;13.80;99.90;;;;;;5031367;28;20387;-75
2021/05/22 07:46:34;;;;;;;0.95;0.70;;;14.20;99.90;;;;;;5031218;28;20025;-75
2021/05/22 07:49:00;;;;;;;1.88;0.80;;;14.60;99.90;;;;;;5013542;28;20028;-75
2021/05/22 07:51:25;;;;;;;1.15;0.80;;;14.90;99.90;;;;;;5013485;28;20018;-74
2021/05/22 07:53:51;;;;;;;1.73;1.00;;;15.00;99.90;;;;;;5031187;28;20482;-74
2021/05/22 07:56:16;;;;;;;6.47;1.08;;;14.80;99.90;;;;;;5031078;28;20021;-74
2021/05/22 07:58:42;;;;;;;2.17;0.90;;;14.60;99.90;;;;;;5031002;28;20083;-74
2021/05/22 08:01:08;;;;;;;1.83;0.90;;;14.50;99.90;;;;;;5031305;28;20109;-74
2021/05/22 08:03:33;;;;;;;1.83;0.73;;;14.80;99.90;;;;;;5013278;28;20014;-75
2021/05/22 08:05:59;;;;;;;3.38;0.88;;;15.30;99.90;;;;;;5030881;28;20052;-74
2021/05/22 08:08:24;;;;;;;2.22;0.80;;;15.10;99.90;;;;;;5012643;28;20057;-75
2021/05/22 08:10:50;;;;;;;1.88;0.82;;;15.00;99.90;;;;;;5013021;28;20390;-75
2021/05/22 08:13:15;;;;;;;2.30;0.90;;;15.10;99.90;;;;;;5012977;28;20395;-74
2021/05/22 08:15:41;;;;;;;1.98;0.90;;;15.50;99.90;;;;;;5030584;28;20406;-74
2021/05/22 08:18:07;;;;;;;2.65;0.85;;;15.70;99.90;;;;;;5030681;28;20394;-75
2021/05/22 08:20:33;;;;;;;2.13;1.00;;;16.00;99.90;;;;;;5012929;28;20562;-74
2021/05/22 08:22:59;;;;;;;3.50;1.02;;;16.40;99.90;;;;;;5012975;28;20129;-75
2021/05/22 08:25:24;;;;;;;2.63;0.98;;;16.90;99.90;;;;;;5030658;28;20049;-75
2021/05/22 08:27:52;;;;;;;3.05;1.00;;;16.80;99.90;;;;;;5030520;28;20068;-74
2021/05/22 08:30:19;;;;;;;2.83;1.08;;;16.70;99.90;;;;;;5012629;28;20049;-75
2021/05/22 08:32:45;;;;;;;2.53;0.95;;;16.60;99.90;;;;;;5030230;28;20390;-75
2021/05/22 08:35:11;;;;;;;5.47;1.20;;;16.40;99.90;;;;;;5012628;28;20025;-75
2021/05/22 08:37:37;;;;;;;6.85;1.40;;;16.20;99.90;;;;;;5030361;28;20064;-75
2021/05/22 08:40:04;;;;;;;5.15;0.80;;;16.20;99.90;;;;;;5030300;28;20022;-75
2021/05/22 08:42:30;;;;;;;6.57;1.10;;;16.30;99.90;;;;;;5012664;28;20466;-75
2021/05/22 08:45:11;;;;;;;3.65;0.90;;;16.80;99.90;;;;;;5030616;28;20475;-75
2021/05/22 08:47:38;;;;;;;4.65;1.38;;;17.70;94.00;;;;;;5030244;28;20552;-75
2021/05/22 08:50:06;;;;;;;1.63;0.90;;;18.20;90.40;;;;;;5030485;28;20037;-75
2021/05/22 08:52:32;;;;;;;4.60;1.52;;;18.10;85.60;;;;;;5012466;28;20025;-75
2021/05/22 08:54:57;;;;;;;3.83;1.08;;;18.00;86.00;;;;;;5030079;28;20033;-75
2021/05/22 08:57:23;;;;;;;3.30;1.25;;;17.70;85.60;;;;;;5012325;28;20030;-75
2021/05/22 08:59:49;;;;;;;4.38;1.25;;;17.60;91.90;;;;;;5030046;28;20554;-75
2021/05/22 09:02:20;;;;;;;2.50;0.93;;;17.70;90.20;;;;;;5030677;28;20026;-76
2021/05/22 09:05:14;;;;;;;2.50;1.05;;;18.00;87.70;;;;;;5030645;28;20087;-75
2021/05/22 09:08:05;;;;;;;3.65;1.13;;;18.30;87.60;;;;;;5011394;28;20103;-75
2021/05/22 09:10:37;;;;;;;2.85;0.85;;;18.30;78.50;;;;;;5029980;28;20117;-75
2021/05/22 09:13:21;;;;;;;1.87;0.80;;;18.10;76.70;;;;;;5030145;28;20029;-75
2021/05/22 09:15:48;;;;;;;2.42;0.98;;;18.40;77.30;;;;;;5029773;28;20084;-74
2021/05/22 09:18:16;;;;;;;1.77;0.80;;;18.60;77.40;;;;;;5011942;28;20598;-75
2021/05/22 09:20:50;;;;;;;3.00;1.20;;;18.60;76.00;;;;;;5028911;28;20434;-75
2021/05/22 09:23:22;;;;;;;4.00;1.00;;;18.80;74.80;;;;;;5011970;28;20021;-75
2021/05/22 09:25:53;;;;;;;4.55;1.20;;;19.10;71.50;;;;;;5011881;28;20056;-75
2021/05/22 09:28:24;;;;;;;3.78;1.40;;;19.10;71.80;;;;;;5012026;28;20033;-75
2021/05/22 09:30:51;;;;;;;1.55;0.60;;;19.20;71.60;;;;;;5012300;28;20410;-76
2021/05/22 09:33:27;;;;;;;6.28;1.42;;;19.50;70.60;;;;;;5029607;28;20493;-75
2021/05/22 09:35:56;;;;;;;2.25;1.10;;;19.70;74.10;;;;;;5029621;28;20379;-76
2021/05/22 09:38:38;;;;;;;1.95;0.82;;;20.00;66.40;;;;;;5029654;28;20052;-75
2021/05/22 09:41:34;;;;;;;4.22;1.00;;;20.00;67.10;;;;;;5029815;28;20029;-75
2021/05/22 09:44:10;;;;;;;3.13;0.82;;;19.80;67.00;;;;;;5011744;28;20030;-74
2021/05/22 09:46:37;;;;;;;6.40;1.67;;;19.40;64.00;;;;;;5029780;28;20013;-76
2021/05/22 09:49:05;;;;;;;3.47;1.10;;;18.90;64.40;;;;;;5011855;28;20021;-75
2021/05/22 09:51:31;;;;;;;3.75;1.10;;;18.30;67.70;;;;;;5029663;28;20390;-75
2021/05/22 09:53:57;;;;;;;4.53;1.30;;;17.90;69.60;;;;;;5029479;28;20022;-74
2021/05/22 09:56:26;;;;;;;1.67;0.85;;;17.90;69.40;;;;;;5011771;28;20465;-77
2021/05/22 09:58:57;;;;;;;3.80;1.33;;;19.70;64.00;;;;;;5029709;28;20565;-75
2021/05/22 10:01:27;;;;;;;4.28;1.35;;;22.50;54.00;;;;;;5011805;28;20044;-75
2021/05/22 10:03:53;;;;;;;1.85;0.93;;;22.70;50.10;;;;;;5029300;28;20490;-75
2021/05/22 10:06:19;;;;;;;6.78;1.52;;;23.50;48.90;;;;;;5029149;28;20038;-76
2021/05/22 10:08:45;;;;;;;2.47;0.77;;;25.50;45.50;;;;;;5029558;28;20366;-76
2021/05/22 10:11:11;;;;;;;3.97;1.20;;;27.80;42.20;;;;;;5029584;28;20068;-76
2021/05/22 10:13:39;;;;;;;3.13;0.98;;;29.90;36.80;;;;;;5029153;28;20101;-74
2021/05/22 10:16:06;;;;;;;3.05;0.90;;;31.20;33.20;;;;;;5053630;22;20053;-75
2021/05/22 10:18:32;;;;;;;3.17;1.30;;;29.70;35.00;;;;;;5011431;28;20025;-74
2021/05/22 10:21:00;;;;;;;3.85;0.88;;;29.90;35.20;;;;;;5029710;28;20025;-75
2021/05/22 10:23:26;;;;;;;2.67;0.90;;;30.80;34.60;;;;;;5028868;28;20052;-75
2021/05/22 10:25:54;;;;;;;2.70;1.00;;;30.80;32.80;;;;;;5011322;28;20025;-76
2021/05/22 10:28:21;;;;;;;2.47;0.95;;;31.60;32.70;;;;;;5029060;28;20029;-74
2021/05/22 10:30:47;;;;;;;4.30;1.00;;;30.20;31.50;;;;;;5011306;28;20033;-74
2021/05/22 10:33:14;;;;;;;2.97;0.88;;;27.30;36.30;;;;;;5014364;28;20048;-74
2021/05/22 10:35:48;;;;;;;2.88;1.00;;;27.70;36.10;;;;;;5032519;28;20017;-75
2021/05/22 10:38:32;;;;;;;3.25;0.85;;;29.00;35.10;;;;;;5032618;28;20092;-74
2021/05/22 10:40:58;;;;;;;2.00;0.80;;;28.90;35.40;;;;;;5014729;28;20563;-75
2021/05/22 10:43:56;;;;;;;2.50;0.98;;;28.40;35.60;;;;;;5032540;28;20074;-74
2021/05/22 10:46:22;;;;;;;6.32;1.13;;;25.70;38.10;;;;;;5032466;28;20061;-75
2021/05/22 10:49:02;;;;;;;3.00;0.95;;;25.30;40.90;;;;;;5014710;28;20405;-75
2021/05/22 10:51:35;;;;;;;2.00;0.80;;;25.70;39.80;;;;;;5033269;28;20025;-76
2021/05/22 10:54:16;;;;;;;1.95;0.98;;;28.20;37.50;;;;;;5014756;28;20114;-75
2021/05/22 10:57:08;;;;;;;1.95;0.73;;;29.90;34.20;;;;;;5014640;28;20040;-75
2021/05/22 10:59:34;;;;;;;2.75;0.95;;;28.90;34.90;;;;;;5014549;28;20025;-75
2021/05/22 11:02:00;;;;;;;1.98;0.80;;;29.90;33.60;;;;;;5014446;28;20108;-75
2021/05/22 11:04:28;;;;;;;1.70;0.70;;;31.50;32.60;;;;;;5014459;28;20089;-75
2021/05/22 11:06:59;;;;;;;3.55;0.90;;;32.10;30.60;;;;;;5032099;28;20029;-75
2021/05/22 11:09:31;;;;;;;2.20;0.90;;;31.10;32.10;;;;;;5014555;28;20033;-74
2021/05/22 11:12:02;;;;;;;2.58;0.82;;;31.50;31.60;;;;;;5014587;28;20116;-75
2021/05/22 11:14:34;;;;;;;2.00;0.80;;;31.60;30.70;;;;;;5032589;28;20037;-75
2021/05/22 11:17:00;;;;;;;1.40;0.70;;;30.60;31.10;;;;;;5014581;28;20528;-75
2021/05/22 11:19:25;;;;;;;2.53;1.08;;;29.60;32.90;;;;;;5014629;28;20041;-75
2021/05/22 11:22:14;;;;;;;3.28;0.60;;;29.90;33.20;;;;;;5032723;28;20021;-74
2021/05/22 11:24:59;;;;;;;2.60;0.82;;;31.70;31.00;;;;;;5014948;28;20113;-76
2021/05/22 11:30:11;;;;;;;2.50;0.90;;;34.80;28.20;;;;;;5031893;28;20022;-75
2021/05/22 11:32:57;;;;;;;1.83;0.77;;;33.20;28.90;;;;;;5032527;28;20026;-75
2021/05/22 11:35:33;;;;;;;2.70;0.68;;;31.90;30.30;;;;;;5032058;28;20470;-75
2021/05/22 11:38:11;;;;;;;1.20;0.70;;;30.10;31.30;;;;;;5031771;28;20112;-75
2021/05/22 11:40:40;;;;;;;2.60;0.93;;;31.00;31.60;;;;;;5013973;28;20475;-75
2021/05/22 11:43:14;;;;;;;2.28;0.82;;;32.00;29.50;;;;;;5030897;28;20026;-75
2021/05/22 11:45:47;;;;;;;1.85;0.80;;;29.80;31.90;;;;;;5013951;28;20486;-74
2021/05/22 11:48:45;;;;;;;3.42;1.20;;;28.30;35.40;;;;;;5013929;28;20033;-74
2021/05/22 11:51:25;;;;;;;3.38;1.15;;;26.50;37.70;;;;;;5031523;28;20055;-74
2021/05/22 11:54:00;;;;;;;2.85;0.95;;;26.70;36.80;;;;;;5031958;28;20060;-74
2021/05/22 11:56:30;;;;;;;2.00;0.77;;;28.60;36.70;;;;;;5031471;28;20026;-75
2021/05/22 11:58:57;;;;;;;2.45;0.90;;;28.90;34.20;;;;;;5031376;28;20033;-75
2021/05/22 12:01:42;;;;;;;2.72;0.70;;;28.10;34.50;;;;;;5031669;28;20441;-74
2021/05/22 12:04:10;;;;;;;3.15;0.95;;;27.40;34.70;;;;;;5031623;28;20048;-75
2021/05/22 12:06:41;;;;;;;1.88;0.70;;;26.40;37.00;;;;;;5031134;28;20064;-74
2021/05/22 12:09:15;;;;;;;2.22;0.80;;;27.50;37.80;;;;;;5013421;28;20071;-74
2021/05/22 12:12:04;;;;;;;1.92;0.82;;;29.50;35.70;;;;;;5013372;28;20022;-75
2021/05/22 12:14:44;;;;;;;1.42;0.82;;;30.60;32.60;;;;;;5031100;28;20025;-75
2021/05/22 12:17:12;;;;;;;3.33;0.98;;;30.50;33.30;;;;;;5013030;28;20029;-75
2021/05/22 12:19:39;;;;;;;2.97;1.38;;;31.70;31.60;;;;;;5013263;28;20029;-75
2021/05/22 12:22:06;;;;;;;3.28;0.80;;;32.40;30.70;;;;;;5030781;28;20018;-75
2021/05/22 12:24:32;;;;;;;3.15;0.88;;;33.30;29.20;;;;;;5030758;28;20018;-75
2021/05/22 12:26:58;;;;;;;1.02;0.60;;;33.70;29.40;;;;;;5030474;28;20493;-75
2021/05/22 12:29:26;;;;;;;2.97;0.82;;;31.50;30.20;;;;;;5030739;28;20037;-76
2021/05/22 12:32:00;;;;;;;2.47;1.00;;;30.40;32.70;;;;;;5030642;28;20021;-74
2021/05/22 12:34:37;;;;;;;1.17;0.80;;;29.70;34.00;;;;;;5012885;28;20025;-74
2021/05/22 12:37:07;;;;;;;3.47;1.08;;;29.40;35.30;;;;;;5030513;28;20051;-75
2021/05/22 12:39:46;;;;;;;1.45;0.60;;;28.90;34.00;;;;;;5030635;28;20487;-75
2021/05/22 12:42:23;;;;;;;1.95;0.70;;;29.80;33.90;;;;;;5037721;28;20021;-75
2021/05/22 12:44:53;;;;;;;1.20;0.80;;;31.20;31.50;;;;;;5038728;28;20021;-75
2021/05/22 12:47:22;;;;;;;4.18;1.05;;;31.60;31.60;;;;;;5019796;28;20041;-75
2021/05/22 12:49:52;;;;;;;2.38;1.08;;;32.40;30.30;;;;;;5013717;28;20037;-75
2021/05/22 12:52:18;;;;;;;2.65;0.85;;;33.60;30.10;;;;;;5013490;28;20498;-74
2021/05/22 12:54:45;;;;;;;1.52;0.93;;;34.20;29.00;;;;;;5012936;28;20029;-74
2021/05/22 12:57:22;;;;;;;1.88;0.60;;;32.20;29.90;;;;;;5030201;28;20022;-75
2021/05/22 12:59:53;;;;;;;2.65;0.95;;;29.70;32.70;;;;;;5012302;28;20056;-75
2021/05/22 13:02:35;;;;;;;2.15;0.88;;;28.00;35.80;;;;;;5030287;28;20036;-75